sensor_id;sensor_type;location;lat;lon;timestamp;P1;durP1;ratioP1;P2;durP2;ratioP2
1004;SDS011;491;53.480;10.174;2023-12-20T00:01:36;5.00;;;0.97;;
1004;SDS011;491;53.480;10.174;2023-12-20T00:04:02;11.70;;;1.70;;
1004;SDS011;491;53.480;10.174;2023-12-20T00:06:28;10.63;;;1.17;;
1004;SDS011;491;53.480;10.174;2023-12-20T00:08:54;6.37;;;0.90;;
1004;SDS011;491;53.480;10.174;2023-12-20T00:11:20;6.27;;;0.37;;
1004;SDS011;491;53.480;10.174;2023-12-20T00:13:46;9.83;;;1.00;;
1004;SDS011;491;53.480;10.174;2023-12-20T00:16:12;6.83;;;1.17;;
1004;SDS011;491;53.480;10.174;2023-12-20T00:18:38;10.20;;;1.07;;
1004;SDS011;491;53.480;10.174;2023-12-20T00:21:04;11.70;;;1.60;;
1004;SDS011;491;53.480;10.174;2023-12-20T00:23:32;10.53;;;1.60;;
1004;SDS011;491;53.480;10.174;2023-12-20T00:25:58;9.27;;;1.13;;
1004;SDS011;491;53.480;10.174;2023-12-20T00:28:24;8.70;;;0.70;;
1004;SDS011;491;53.480;10.174;2023-12-20T00:30:50;11.53;;;1.37;;
1004;SDS011;491;53.480;10.174;2023-12-20T00:33:16;5.90;;;1.20;;
1004;SDS011;491;53.480;10.174;2023-12-20T00:35:42;10.90;;;0.60;;
1004;SDS011;491;53.480;10.174;2023-12-20T00:38:08;5.90;;;0.80;;
1004;SDS011;491;53.480;10.174;2023-12-20T00:40:34;8.13;;;0.97;;
1004;SDS011;491;53.480;10.174;2023-12-20T00:43:00;8.03;;;1.17;;
1004;SDS011;491;53.480;10.174;2023-12-20T00:45:26;15.60;;;1.33;;
1004;SDS011;491;53.480;10.174;2023-12-20T00:47:52;7.60;;;1.23;;
1004;SDS011;491;53.480;10.174;2023-12-20T00:50:18;11.73;;;0.93;;
1004;SDS011;491;53.480;10.174;2023-12-20T00:52:46;5.73;;;0.80;;
1004;SDS011;491;53.480;10.174;2023-12-20T00:55:12;15.47;;;1.03;;
1004;SDS011;491;53.480;10.174;2023-12-20T00:57:38;8.60;;;1.20;;
1004;SDS011;491;53.480;10.174;2023-12-20T01:00:05;13.77;;;1.17;;
1004;SDS011;491;53.480;10.174;2023-12-20T01:02:31;4.60;;;0.93;;
1004;SDS011;491;53.480;10.174;2023-12-20T01:04:56;12.47;;;1.33;;
1004;SDS011;491;53.480;10.174;2023-12-20T01:07:22;6.03;;;0.57;;
1004;SDS011;491;53.480;10.174;2023-12-20T01:09:48;10.53;;;0.83;;
1004;SDS011;491;53.480;10.174;2023-12-20T01:12:14;7.20;;;0.57;;
1004;SDS011;491;53.480;10.174;2023-12-20T01:14:40;5.50;;;0.50;;
1004;SDS011;491;53.480;10.174;2023-12-20T01:17:07;7.10;;;0.30;;
1004;SDS011;491;53.480;10.174;2023-12-20T01:19:33;8.33;;;1.03;;
1004;SDS011;491;53.480;10.174;2023-12-20T01:21:59;10.37;;;1.27;;
1004;SDS011;491;53.480;10.174;2023-12-20T01:24:28;5.13;;;1.00;;
1004;SDS011;491;53.480;10.174;2023-12-20T01:26:57;6.83;;;0.67;;
1004;SDS011;491;53.480;10.174;2023-12-20T01:29:23;8.13;;;0.87;;
1004;SDS011;491;53.480;10.174;2023-12-20T01:31:49;10.13;;;0.97;;
1004;SDS011;491;53.480;10.174;2023-12-20T01:34:18;12.00;;;1.20;;
1004;SDS011;491;53.480;10.174;2023-12-20T01:36:44;12.80;;;1.03;;
1004;SDS011;491;53.480;10.174;2023-12-20T01:39:10;9.47;;;0.77;;
1004;SDS011;491;53.480;10.174;2023-12-20T01:41:35;8.70;;;1.23;;
1004;SDS011;491;53.480;10.174;2023-12-20T01:44:01;7.60;;;1.10;;
1004;SDS011;491;53.480;10.174;2023-12-20T01:46:27;13.83;;;1.20;;
1004;SDS011;491;53.480;10.174;2023-12-20T01:48:53;6.87;;;0.83;;
1004;SDS011;491;53.480;10.174;2023-12-20T01:51:19;8.10;;;1.33;;
1004;SDS011;491;53.480;10.174;2023-12-20T01:53:45;4.50;;;0.60;;
1004;SDS011;491;53.480;10.174;2023-12-20T01:56:12;10.23;;;1.07;;
1004;SDS011;491;53.480;10.174;2023-12-20T01:58:39;7.53;;;0.90;;
1004;SDS011;491;53.480;10.174;2023-12-20T02:01:07;7.57;;;1.20;;
1004;SDS011;491;53.480;10.174;2023-12-20T02:03:33;8.83;;;1.17;;
1004;SDS011;491;53.480;10.174;2023-12-20T02:06:01;9.23;;;1.40;;
1004;SDS011;491;53.480;10.174;2023-12-20T02:08:27;8.67;;;1.10;;
1004;SDS011;491;53.480;10.174;2023-12-20T02:10:53;10.13;;;0.90;;
1004;SDS011;491;53.480;10.174;2023-12-20T02:13:19;8.40;;;1.37;;
1004;SDS011;491;53.480;10.174;2023-12-20T02:15:45;10.30;;;1.73;;
1004;SDS011;491;53.480;10.174;2023-12-20T02:18:11;10.00;;;1.30;;
1004;SDS011;491;53.480;10.174;2023-12-20T02:20:40;10.00;;;2.07;;
1004;SDS011;491;53.480;10.174;2023-12-20T02:23:06;8.50;;;1.50;;
1004;SDS011;491;53.480;10.174;2023-12-20T02:25:32;12.30;;;1.87;;
1004;SDS011;491;53.480;10.174;2023-12-20T02:27:58;5.50;;;0.87;;
1004;SDS011;491;53.480;10.174;2023-12-20T02:30:24;7.77;;;1.43;;
1004;SDS011;491;53.480;10.174;2023-12-20T02:32:50;9.40;;;2.20;;
1004;SDS011;491;53.480;10.174;2023-12-20T02:35:17;8.60;;;1.00;;
1004;SDS011;491;53.480;10.174;2023-12-20T02:37:42;8.33;;;1.47;;
1004;SDS011;491;53.480;10.174;2023-12-20T02:40:08;10.47;;;0.83;;
1004;SDS011;491;53.480;10.174;2023-12-20T02:42:35;8.50;;;1.27;;
1004;SDS011;491;53.480;10.174;2023-12-20T02:45:02;6.70;;;1.27;;
1004;SDS011;491;53.480;10.174;2023-12-20T02:47:28;12.27;;;1.27;;
1004;SDS011;491;53.480;10.174;2023-12-20T02:49:55;6.90;;;1.07;;
1004;SDS011;491;53.480;10.174;2023-12-20T02:52:21;10.13;;;1.53;;
1004;SDS011;491;53.480;10.174;2023-12-20T02:54:47;9.63;;;1.50;;
1004;SDS011;491;53.480;10.174;2023-12-20T02:57:13;7.13;;;1.33;;
1004;SDS011;491;53.480;10.174;2023-12-20T02:59:39;10.50;;;1.63;;
1004;SDS011;491;53.480;10.174;2023-12-20T03:02:08;6.67;;;1.70;;
1004;SDS011;491;53.480;10.174;2023-12-20T03:04:34;9.90;;;1.30;;
1004;SDS011;491;53.480;10.174;2023-12-20T03:07:00;11.60;;;2.13;;
1004;SDS011;491;53.480;10.174;2023-12-20T03:09:25;6.10;;;1.03;;
1004;SDS011;491;53.480;10.174;2023-12-20T03:11:51;8.13;;;1.50;;
1004;SDS011;491;53.480;10.174;2023-12-20T03:14:17;3.60;;;0.70;;
1004;SDS011;491;53.480;10.174;2023-12-20T03:16:49;6.70;;;1.67;;
1004;SDS011;491;53.480;10.174;2023-12-20T03:19:16;7.67;;;1.43;;
1004;SDS011;491;53.480;10.174;2023-12-20T03:21:42;6.87;;;1.50;;
1004;SDS011;491;53.480;10.174;2023-12-20T03:24:11;9.83;;;1.40;;
1004;SDS011;491;53.480;10.174;2023-12-20T03:26:37;13.43;;;3.27;;
1004;SDS011;491;53.480;10.174;2023-12-20T03:29:03;9.40;;;1.47;;
1004;SDS011;491;53.480;10.174;2023-12-20T03:31:29;10.80;;;1.17;;
1004;SDS011;491;53.480;10.174;2023-12-20T03:33:55;4.40;;;1.00;;
1004;SDS011;491;53.480;10.174;2023-12-20T03:36:20;5.93;;;1.07;;
1004;SDS011;491;53.480;10.174;2023-12-20T03:38:46;9.47;;;2.70;;
1004;SDS011;491;53.480;10.174;2023-12-20T03:41:12;6.57;;;0.83;;
1004;SDS011;491;53.480;10.174;2023-12-20T03:43:38;8.43;;;1.07;;
1004;SDS011;491;53.480;10.174;2023-12-20T03:46:04;8.00;;;1.87;;
1004;SDS011;491;53.480;10.174;2023-12-20T03:48:31;7.77;;;1.27;;
1004;SDS011;491;53.480;10.174;2023-12-20T03:50:57;4.83;;;1.23;;
1004;SDS011;491;53.480;10.174;2023-12-20T03:53:22;13.67;;;1.67;;
1004;SDS011;491;53.480;10.174;2023-12-20T03:55:48;4.97;;;0.53;;
1004;SDS011;491;53.480;10.174;2023-12-20T03:58:14;7.10;;;0.97;;
1004;SDS011;491;53.480;10.174;2023-12-20T04:00:40;13.20;;;1.67;;
1004;SDS011;491;53.480;10.174;2023-12-20T04:03:09;5.80;;;1.23;;
1004;SDS011;491;53.480;10.174;2023-12-20T04:05:38;9.80;;;1.03;;
1004;SDS011;491;53.480;10.174;2023-12-20T04:08:07;8.20;;;1.20;;
1004;SDS011;491;53.480;10.174;2023-12-20T04:10:39;8.43;;;0.70;;
1004;SDS011;491;53.480;10.174;2023-12-20T04:13:05;7.97;;;1.03;;
1004;SDS011;491;53.480;10.174;2023-12-20T04:15:34;5.70;;;1.23;;
1004;SDS011;491;53.480;10.174;2023-12-20T04:18:06;7.83;;;1.40;;
1004;SDS011;491;53.480;10.174;2023-12-20T04:20:32;11.00;;;1.60;;
1004;SDS011;491;53.480;10.174;2023-12-20T04:22:58;13.73;;;3.20;;
1004;SDS011;491;53.480;10.174;2023-12-20T04:25:24;9.50;;;2.43;;
1004;SDS011;491;53.480;10.174;2023-12-20T04:27:53;6.33;;;1.23;;
1004;SDS011;491;53.480;10.174;2023-12-20T04:30:19;12.00;;;1.80;;
1004;SDS011;491;53.480;10.174;2023-12-20T04:32:45;5.63;;;1.63;;
1004;SDS011;491;53.480;10.174;2023-12-20T04:35:11;7.30;;;2.43;;
1004;SDS011;491;53.480;10.174;2023-12-20T04:37:36;13.27;;;3.00;;
1004;SDS011;491;53.480;10.174;2023-12-20T04:40:03;11.10;;;3.43;;
1004;SDS011;491;53.480;10.174;2023-12-20T04:42:30;13.80;;;2.07;;
1004;SDS011;491;53.480;10.174;2023-12-20T04:44:59;9.43;;;3.00;;
1004;SDS011;491;53.480;10.174;2023-12-20T04:47:25;10.10;;;2.80;;
1004;SDS011;491;53.480;10.174;2023-12-20T04:49:51;10.23;;;2.43;;
1004;SDS011;491;53.480;10.174;2023-12-20T04:52:17;12.23;;;2.30;;
1004;SDS011;491;53.480;10.174;2023-12-20T04:54:43;8.10;;;2.97;;
1004;SDS011;491;53.480;10.174;2023-12-20T04:57:09;8.27;;;2.80;;
1004;SDS011;491;53.480;10.174;2023-12-20T04:59:35;8.13;;;2.50;;
1004;SDS011;491;53.480;10.174;2023-12-20T05:02:00;11.30;;;1.93;;
1004;SDS011;491;53.480;10.174;2023-12-20T05:04:26;12.73;;;2.17;;
1004;SDS011;491;53.480;10.174;2023-12-20T05:06:52;10.50;;;2.63;;
1004;SDS011;491;53.480;10.174;2023-12-20T05:09:18;17.30;;;2.87;;
1004;SDS011;491;53.480;10.174;2023-12-20T05:11:44;8.00;;;2.50;;
1004;SDS011;491;53.480;10.174;2023-12-20T05:14:10;6.93;;;1.70;;
1004;SDS011;491;53.480;10.174;2023-12-20T05:16:36;8.83;;;3.30;;
1004;SDS011;491;53.480;10.174;2023-12-20T05:19:02;7.10;;;2.13;;
1004;SDS011;491;53.480;10.174;2023-12-20T05:21:31;6.53;;;3.20;;
1004;SDS011;491;53.480;10.174;2023-12-20T05:23:58;13.03;;;3.60;;
1004;SDS011;491;53.480;10.174;2023-12-20T05:26:24;11.77;;;2.60;;
1004;SDS011;491;53.480;10.174;2023-12-20T05:28:50;11.47;;;3.10;;
1004;SDS011;491;53.480;10.174;2023-12-20T05:31:16;8.00;;;2.77;;
1004;SDS011;491;53.480;10.174;2023-12-20T05:33:41;11.83;;;2.90;;
1004;SDS011;491;53.480;10.174;2023-12-20T05:36:07;13.53;;;3.80;;
1004;SDS011;491;53.480;10.174;2023-12-20T05:38:36;12.80;;;3.00;;
1004;SDS011;491;53.480;10.174;2023-12-20T05:41:02;13.40;;;3.97;;
1004;SDS011;491;53.480;10.174;2023-12-20T05:43:28;12.57;;;3.53;;
1004;SDS011;491;53.480;10.174;2023-12-20T05:45:54;7.40;;;3.10;;
1004;SDS011;491;53.480;10.174;2023-12-20T05:48:20;12.70;;;3.90;;
1004;SDS011;491;53.480;10.174;2023-12-20T05:50:46;10.33;;;2.97;;
1004;SDS011;491;53.480;10.174;2023-12-20T05:53:12;11.03;;;3.30;;
1004;SDS011;491;53.480;10.174;2023-12-20T05:55:38;10.87;;;2.73;;
1004;SDS011;491;53.480;10.174;2023-12-20T05:58:04;9.97;;;2.80;;
1004;SDS011;491;53.480;10.174;2023-12-20T06:00:30;7.90;;;1.90;;
1004;SDS011;491;53.480;10.174;2023-12-20T06:02:56;6.63;;;3.33;;
1004;SDS011;491;53.480;10.174;2023-12-20T06:05:22;5.63;;;2.07;;
1004;SDS011;491;53.480;10.174;2023-12-20T06:07:47;9.90;;;2.00;;
1004;SDS011;491;53.480;10.174;2023-12-20T06:10:15;14.37;;;2.80;;
1004;SDS011;491;53.480;10.174;2023-12-20T06:12:41;6.80;;;2.20;;
1004;SDS011;491;53.480;10.174;2023-12-20T06:15:07;11.33;;;2.93;;
1004;SDS011;491;53.480;10.174;2023-12-20T06:17:33;15.87;;;3.63;;
1004;SDS011;491;53.480;10.174;2023-12-20T06:20:00;11.03;;;3.37;;
1004;SDS011;491;53.480;10.174;2023-12-20T06:22:26;13.03;;;3.20;;
1004;SDS011;491;53.480;10.174;2023-12-20T06:24:52;13.67;;;3.20;;
1004;SDS011;491;53.480;10.174;2023-12-20T06:27:18;4.70;;;2.03;;
1004;SDS011;491;53.480;10.174;2023-12-20T06:29:44;8.90;;;2.37;;
1004;SDS011;491;53.480;10.174;2023-12-20T06:32:10;9.83;;;2.40;;
1004;SDS011;491;53.480;10.174;2023-12-20T06:34:36;6.70;;;1.37;;
1004;SDS011;491;53.480;10.174;2023-12-20T06:37:03;9.83;;;2.07;;
1004;SDS011;491;53.480;10.174;2023-12-20T06:39:30;10.20;;;2.10;;
1004;SDS011;491;53.480;10.174;2023-12-20T06:41:59;6.83;;;1.60;;
1004;SDS011;491;53.480;10.174;2023-12-20T06:44:25;5.73;;;2.50;;
1004;SDS011;491;53.480;10.174;2023-12-20T06:46:51;9.30;;;1.70;;
1004;SDS011;491;53.480;10.174;2023-12-20T06:49:21;6.00;;;1.63;;
1004;SDS011;491;53.480;10.174;2023-12-20T06:51:50;5.50;;;1.70;;
1004;SDS011;491;53.480;10.174;2023-12-20T06:54:16;8.50;;;2.47;;
1004;SDS011;491;53.480;10.174;2023-12-20T06:56:42;7.73;;;2.00;;
1004;SDS011;491;53.480;10.174;2023-12-20T06:59:08;9.77;;;1.10;;
1004;SDS011;491;53.480;10.174;2023-12-20T07:01:36;4.50;;;1.40;;
1004;SDS011;491;53.480;10.174;2023-12-20T07:04:03;9.63;;;1.30;;
1004;SDS011;491;53.480;10.174;2023-12-20T07:06:32;7.33;;;1.27;;
1004;SDS011;491;53.480;10.174;2023-12-20T07:08:58;11.23;;;1.70;;
1004;SDS011;491;53.480;10.174;2023-12-20T07:11:24;11.63;;;1.53;;
1004;SDS011;491;53.480;10.174;2023-12-20T07:13:51;5.60;;;1.33;;
1004;SDS011;491;53.480;10.174;2023-12-20T07:16:20;13.40;;;2.17;;
1004;SDS011;491;53.480;10.174;2023-12-20T07:18:45;10.00;;;1.27;;
1004;SDS011;491;53.480;10.174;2023-12-20T07:21:12;8.83;;;1.50;;
1004;SDS011;491;53.480;10.174;2023-12-20T07:23:38;15.30;;;2.50;;
1004;SDS011;491;53.480;10.174;2023-12-20T07:26:03;7.17;;;2.90;;
1004;SDS011;491;53.480;10.174;2023-12-20T07:28:29;9.33;;;2.60;;
1004;SDS011;491;53.480;10.174;2023-12-20T07:30:55;6.70;;;2.07;;
1004;SDS011;491;53.480;10.174;2023-12-20T07:33:25;7.93;;;1.43;;
1004;SDS011;491;53.480;10.174;2023-12-20T07:35:51;17.37;;;2.93;;
1004;SDS011;491;53.480;10.174;2023-12-20T07:38:16;7.77;;;1.53;;
1004;SDS011;491;53.480;10.174;2023-12-20T07:40:42;12.50;;;2.83;;
1004;SDS011;491;53.480;10.174;2023-12-20T07:43:08;18.17;;;3.10;;
1004;SDS011;491;53.480;10.174;2023-12-20T07:45:34;12.47;;;1.63;;
1004;SDS011;491;53.480;10.174;2023-12-20T07:48:00;13.13;;;3.60;;
1004;SDS011;491;53.480;10.174;2023-12-20T07:50:33;7.50;;;1.53;;
1004;SDS011;491;53.480;10.174;2023-12-20T07:52:59;9.33;;;2.77;;
1004;SDS011;491;53.480;10.174;2023-12-20T07:55:26;12.83;;;2.10;;
1004;SDS011;491;53.480;10.174;2023-12-20T07:57:51;9.67;;;2.00;;
1004;SDS011;491;53.480;10.174;2023-12-20T08:00:18;11.60;;;3.60;;
1004;SDS011;491;53.480;10.174;2023-12-20T08:02:44;10.50;;;2.20;;
1004;SDS011;491;53.480;10.174;2023-12-20T08:05:10;11.60;;;2.33;;
1004;SDS011;491;53.480;10.174;2023-12-20T08:07:36;8.70;;;2.10;;
1004;SDS011;491;53.480;10.174;2023-12-20T08:10:02;9.93;;;2.20;;
1004;SDS011;491;53.480;10.174;2023-12-20T08:12:28;11.40;;;2.77;;
1004;SDS011;491;53.480;10.174;2023-12-20T08:14:54;9.03;;;1.83;;
1004;SDS011;491;53.480;10.174;2023-12-20T08:17:21;9.80;;;2.50;;
1004;SDS011;491;53.480;10.174;2023-12-20T08:19:48;9.00;;;3.40;;
1004;SDS011;491;53.480;10.174;2023-12-20T08:22:14;10.33;;;3.63;;
1004;SDS011;491;53.480;10.174;2023-12-20T08:24:40;9.03;;;2.93;;
1004;SDS011;491;53.480;10.174;2023-12-20T08:27:06;10.63;;;3.10;;
1004;SDS011;491;53.480;10.174;2023-12-20T08:29:32;13.73;;;3.00;;
1004;SDS011;491;53.480;10.174;2023-12-20T08:31:58;8.63;;;4.17;;
1004;SDS011;491;53.480;10.174;2023-12-20T08:34:25;10.48;;;2.78;;
1004;SDS011;491;53.480;10.174;2023-12-20T08:36:51;11.73;;;3.50;;
1004;SDS011;491;53.480;10.174;2023-12-20T08:39:17;7.10;;;1.90;;
1004;SDS011;491;53.480;10.174;2023-12-20T08:41:43;18.47;;;2.50;;
1004;SDS011;491;53.480;10.174;2023-12-20T08:44:09;7.13;;;1.83;;
1004;SDS011;491;53.480;10.174;2023-12-20T08:46:35;10.37;;;1.80;;
1004;SDS011;491;53.480;10.174;2023-12-20T08:49:01;17.10;;;2.70;;
1004;SDS011;491;53.480;10.174;2023-12-20T08:51:27;12.63;;;1.70;;
1004;SDS011;491;53.480;10.174;2023-12-20T08:53:54;8.20;;;1.57;;
1004;SDS011;491;53.480;10.174;2023-12-20T08:56:20;8.87;;;1.27;;
1004;SDS011;491;53.480;10.174;2023-12-20T08:58:46;11.97;;;2.30;;
1004;SDS011;491;53.480;10.174;2023-12-20T09:01:12;10.90;;;1.57;;
1004;SDS011;491;53.480;10.174;2023-12-20T09:03:38;10.90;;;1.60;;
1004;SDS011;491;53.480;10.174;2023-12-20T09:06:04;5.63;;;1.67;;
1004;SDS011;491;53.480;10.174;2023-12-20T09:08:30;11.17;;;1.60;;
1004;SDS011;491;53.480;10.174;2023-12-20T09:10:56;9.73;;;2.17;;
1004;SDS011;491;53.480;10.174;2023-12-20T09:13:22;5.00;;;1.43;;
1004;SDS011;491;53.480;10.174;2023-12-20T09:15:56;6.40;;;1.70;;
1004;SDS011;491;53.480;10.174;2023-12-20T09:18:22;10.33;;;0.80;;
1004;SDS011;491;53.480;10.174;2023-12-20T09:20:49;7.77;;;0.87;;
1004;SDS011;491;53.480;10.174;2023-12-20T09:23:27;10.97;;;1.33;;
1004;SDS011;491;53.480;10.174;2023-12-20T09:25:59;6.53;;;1.40;;
1004;SDS011;491;53.480;10.174;2023-12-20T09:28:27;4.27;;;0.73;;
1004;SDS011;491;53.480;10.174;2023-12-20T09:30:53;3.43;;;0.27;;
1004;SDS011;491;53.480;10.174;2023-12-20T09:33:20;6.17;;;0.60;;
1004;SDS011;491;53.480;10.174;2023-12-20T09:35:49;2.40;;;0.43;;
1004;SDS011;491;53.480;10.174;2023-12-20T09:38:20;3.53;;;0.33;;
1004;SDS011;491;53.480;10.174;2023-12-20T09:40:47;4.00;;;0.20;;
1004;SDS011;491;53.480;10.174;2023-12-20T09:43:14;5.03;;;1.40;;
1004;SDS011;491;53.480;10.174;2023-12-20T09:45:41;3.03;;;0.50;;
1004;SDS011;491;53.480;10.174;2023-12-20T09:48:07;3.83;;;0.40;;
1004;SDS011;491;53.480;10.174;2023-12-20T09:50:35;2.67;;;0.27;;
1004;SDS011;491;53.480;10.174;2023-12-20T09:53:01;4.80;;;0.30;;
1004;SDS011;491;53.480;10.174;2023-12-20T09:55:29;0.73;;;0.20;;
1004;SDS011;491;53.480;10.174;2023-12-20T09:57:56;3.83;;;0.30;;
1004;SDS011;491;53.480;10.174;2023-12-20T10:00:22;2.93;;;0.40;;
1004;SDS011;491;53.480;10.174;2023-12-20T10:05:15;1.27;;;0.20;;
1004;SDS011;491;53.480;10.174;2023-12-20T10:07:46;3.73;;;0.73;;
1004;SDS011;491;53.480;10.174;2023-12-20T10:10:12;0.50;;;0.20;;
1004;SDS011;491;53.480;10.174;2023-12-20T10:12:38;1.07;;;0.20;;
1004;SDS011;491;53.480;10.174;2023-12-20T10:15:05;1.43;;;0.20;;
1004;SDS011;491;53.480;10.174;2023-12-20T10:17:31;3.40;;;0.40;;
1004;SDS011;491;53.480;10.174;2023-12-20T10:19:57;2.10;;;0.20;;
1004;SDS011;491;53.480;10.174;2023-12-20T10:22:24;2.87;;;0.30;;
1004;SDS011;491;53.480;10.174;2023-12-20T10:24:50;0.97;;;0.20;;
1004;SDS011;491;53.480;10.174;2023-12-20T10:27:16;0.50;;;0.20;;
1004;SDS011;491;53.480;10.174;2023-12-20T10:29:44;1.03;;;0.20;;
1004;SDS011;491;53.480;10.174;2023-12-20T10:32:26;1.30;;;0.33;;
1004;SDS011;491;53.480;10.174;2023-12-20T10:34:53;0.87;;;0.20;;
1004;SDS011;491;53.480;10.174;2023-12-20T10:37:19;2.57;;;0.20;;
1004;SDS011;491;53.480;10.174;2023-12-20T10:39:49;1.83;;;0.20;;
1004;SDS011;491;53.480;10.174;2023-12-20T10:42:17;1.90;;;0.20;;
1004;SDS011;491;53.480;10.174;2023-12-20T10:44:42;3.73;;;0.30;;
1004;SDS011;491;53.480;10.174;2023-12-20T10:47:09;5.47;;;0.93;;
1004;SDS011;491;53.480;10.174;2023-12-20T10:49:36;1.37;;;0.27;;
1004;SDS011;491;53.480;10.174;2023-12-20T10:52:02;2.27;;;0.20;;
1004;SDS011;491;53.480;10.174;2023-12-20T10:54:29;2.10;;;0.30;;
1004;SDS011;491;53.480;10.174;2023-12-20T10:56:55;1.90;;;0.20;;
1004;SDS011;491;53.480;10.174;2023-12-20T10:59:23;5.17;;;0.40;;
1004;SDS011;491;53.480;10.174;2023-12-20T11:01:50;7.23;;;0.77;;
1004;SDS011;491;53.480;10.174;2023-12-20T11:04:18;4.37;;;0.20;;
1004;SDS011;491;53.480;10.174;2023-12-20T11:06:49;3.03;;;0.20;;
1004;SDS011;491;53.480;10.174;2023-12-20T11:09:24;3.77;;;0.30;;
1004;SDS011;491;53.480;10.174;2023-12-20T11:14:23;4.27;;;0.30;;
1004;SDS011;491;53.480;10.174;2023-12-20T11:16:50;2.60;;;0.30;;
1004;SDS011;491;53.480;10.174;2023-12-20T11:19:16;2.43;;;0.67;;
1004;SDS011;491;53.480;10.174;2023-12-20T11:21:42;3.80;;;0.43;;
1004;SDS011;491;53.480;10.174;2023-12-20T11:24:09;2.60;;;0.23;;
1004;SDS011;491;53.480;10.174;2023-12-20T11:26:35;2.70;;;0.20;;
1004;SDS011;491;53.480;10.174;2023-12-20T11:31:46;4.57;;;0.30;;
1004;SDS011;491;53.480;10.174;2023-12-20T11:34:12;3.07;;;0.57;;
1004;SDS011;491;53.480;10.174;2023-12-20T11:36:39;3.30;;;0.33;;
1004;SDS011;491;53.480;10.174;2023-12-20T11:39:05;3.43;;;0.40;;
1004;SDS011;491;53.480;10.174;2023-12-20T11:41:33;1.73;;;0.40;;
1004;SDS011;491;53.480;10.174;2023-12-20T11:43:59;3.63;;;0.87;;
1004;SDS011;491;53.480;10.174;2023-12-20T11:46:26;10.33;;;1.20;;
1004;SDS011;491;53.480;10.174;2023-12-20T11:48:52;4.23;;;0.43;;
1004;SDS011;491;53.480;10.174;2023-12-20T11:51:18;6.30;;;0.30;;
1004;SDS011;491;53.480;10.174;2023-12-20T11:53:44;7.10;;;0.40;;
1004;SDS011;491;53.480;10.174;2023-12-20T11:56:10;6.93;;;0.97;;
1004;SDS011;491;53.480;10.174;2023-12-20T11:58:37;8.00;;;1.60;;
1004;SDS011;491;53.480;10.174;2023-12-20T12:01:03;6.07;;;0.60;;
1004;SDS011;491;53.480;10.174;2023-12-20T12:03:29;7.47;;;0.37;;
1004;SDS011;491;53.480;10.174;2023-12-20T12:05:55;10.63;;;1.50;;
1004;SDS011;491;53.480;10.174;2023-12-20T12:08:21;6.57;;;0.73;;
1004;SDS011;491;53.480;10.174;2023-12-20T12:10:47;10.93;;;1.13;;
1004;SDS011;491;53.480;10.174;2023-12-20T12:13:13;3.50;;;0.43;;
1004;SDS011;491;53.480;10.174;2023-12-20T12:15:42;9.47;;;0.93;;
1004;SDS011;491;53.480;10.174;2023-12-20T12:18:09;11.10;;;1.30;;
1004;SDS011;491;53.480;10.174;2023-12-20T12:20:35;5.33;;;1.77;;
1004;SDS011;491;53.480;10.174;2023-12-20T12:23:02;7.50;;;0.67;;
1004;SDS011;491;53.480;10.174;2023-12-20T12:25:29;10.60;;;1.00;;
1004;SDS011;491;53.480;10.174;2023-12-20T12:27:55;11.03;;;1.43;;
1004;SDS011;491;53.480;10.174;2023-12-20T12:30:21;2.80;;;0.50;;
1004;SDS011;491;53.480;10.174;2023-12-20T12:32:48;7.90;;;1.50;;
1004;SDS011;491;53.480;10.174;2023-12-20T12:35:14;3.57;;;0.63;;
1004;SDS011;491;53.480;10.174;2023-12-20T12:37:40;7.10;;;0.77;;
1004;SDS011;491;53.480;10.174;2023-12-20T12:40:11;7.23;;;0.90;;
1004;SDS011;491;53.480;10.174;2023-12-20T12:42:38;8.30;;;1.20;;
1004;SDS011;491;53.480;10.174;2023-12-20T12:45:04;9.13;;;0.60;;
1004;SDS011;491;53.480;10.174;2023-12-20T12:47:30;5.40;;;1.00;;
1004;SDS011;491;53.480;10.174;2023-12-20T12:49:56;12.43;;;1.10;;
1004;SDS011;491;53.480;10.174;2023-12-20T12:52:23;3.80;;;0.50;;
1004;SDS011;491;53.480;10.174;2023-12-20T12:54:49;5.30;;;0.80;;
1004;SDS011;491;53.480;10.174;2023-12-20T12:57:15;5.60;;;1.03;;
1004;SDS011;491;53.480;10.174;2023-12-20T12:59:42;5.17;;;0.87;;
1004;SDS011;491;53.480;10.174;2023-12-20T13:02:10;9.07;;;1.10;;
1004;SDS011;491;53.480;10.174;2023-12-20T13:04:36;6.00;;;0.73;;
1004;SDS011;491;53.480;10.174;2023-12-20T13:07:02;4.13;;;0.50;;
1004;SDS011;491;53.480;10.174;2023-12-20T13:09:28;7.40;;;1.90;;
1004;SDS011;491;53.480;10.174;2023-12-20T13:11:54;5.20;;;1.17;;
1004;SDS011;491;53.480;10.174;2023-12-20T13:14:20;6.67;;;0.63;;
1004;SDS011;491;53.480;10.174;2023-12-20T13:16:46;5.77;;;0.70;;
1004;SDS011;491;53.480;10.174;2023-12-20T13:19:12;8.87;;;0.90;;
1004;SDS011;491;53.480;10.174;2023-12-20T13:21:38;5.70;;;1.20;;
1004;SDS011;491;53.480;10.174;2023-12-20T13:24:04;10.37;;;1.47;;
1004;SDS011;491;53.480;10.174;2023-12-20T13:26:30;8.77;;;1.27;;
1004;SDS011;491;53.480;10.174;2023-12-20T13:28:57;8.27;;;1.17;;
1004;SDS011;491;53.480;10.174;2023-12-20T13:31:23;9.57;;;1.60;;
1004;SDS011;491;53.480;10.174;2023-12-20T13:33:49;5.40;;;1.07;;
1004;SDS011;491;53.480;10.174;2023-12-20T13:36:17;8.80;;;1.10;;
1004;SDS011;491;53.480;10.174;2023-12-20T13:38:43;7.43;;;0.93;;
1004;SDS011;491;53.480;10.174;2023-12-20T13:41:09;12.17;;;1.53;;
1004;SDS011;491;53.480;10.174;2023-12-20T13:43:35;8.07;;;1.40;;
1004;SDS011;491;53.480;10.174;2023-12-20T13:46:01;8.80;;;1.20;;
1004;SDS011;491;53.480;10.174;2023-12-20T13:48:27;17.80;;;2.23;;
1004;SDS011;491;53.480;10.174;2023-12-20T13:50:53;7.87;;;1.60;;
1004;SDS011;491;53.480;10.174;2023-12-20T13:53:19;11.57;;;2.10;;
1004;SDS011;491;53.480;10.174;2023-12-20T13:55:45;11.17;;;2.07;;
1004;SDS011;491;53.480;10.174;2023-12-20T13:58:11;12.63;;;3.07;;
1004;SDS011;491;53.480;10.174;2023-12-20T14:00:37;12.50;;;2.07;;
1004;SDS011;491;53.480;10.174;2023-12-20T14:03:04;10.17;;;1.93;;
1004;SDS011;491;53.480;10.174;2023-12-20T14:05:31;14.70;;;3.10;;
1004;SDS011;491;53.480;10.174;2023-12-20T14:07:58;14.60;;;1.57;;
1004;SDS011;491;53.480;10.174;2023-12-20T14:10:25;14.20;;;1.83;;
1004;SDS011;491;53.480;10.174;2023-12-20T14:12:51;11.47;;;2.10;;
1004;SDS011;491;53.480;10.174;2023-12-20T14:15:17;10.73;;;2.67;;
1004;SDS011;491;53.480;10.174;2023-12-20T14:17:43;19.03;;;3.23;;
1004;SDS011;491;53.480;10.174;2023-12-20T14:20:10;12.23;;;2.20;;
1004;SDS011;491;53.480;10.174;2023-12-20T14:22:38;15.90;;;4.00;;
1004;SDS011;491;53.480;10.174;2023-12-20T14:25:08;14.33;;;2.67;;
1004;SDS011;491;53.480;10.174;2023-12-20T14:27:37;9.47;;;1.90;;
1004;SDS011;491;53.480;10.174;2023-12-20T14:30:03;13.40;;;2.73;;
1004;SDS011;491;53.480;10.174;2023-12-20T14:32:29;9.27;;;1.17;;
1004;SDS011;491;53.480;10.174;2023-12-20T14:34:55;9.73;;;3.93;;
1004;SDS011;491;53.480;10.174;2023-12-20T14:37:21;14.17;;;2.30;;
1004;SDS011;491;53.480;10.174;2023-12-20T14:39:47;10.70;;;1.80;;
1004;SDS011;491;53.480;10.174;2023-12-20T14:42:13;10.07;;;2.17;;
1004;SDS011;491;53.480;10.174;2023-12-20T14:44:39;12.23;;;2.03;;
1004;SDS011;491;53.480;10.174;2023-12-20T14:47:08;18.70;;;4.97;;
1004;SDS011;491;53.480;10.174;2023-12-20T14:49:41;8.97;;;2.13;;
1004;SDS011;491;53.480;10.174;2023-12-20T14:52:08;14.23;;;1.87;;
1004;SDS011;491;53.480;10.174;2023-12-20T14:54:37;19.60;;;2.57;;
1004;SDS011;491;53.480;10.174;2023-12-20T14:57:03;10.70;;;2.50;;
1004;SDS011;491;53.480;10.174;2023-12-20T14:59:29;9.83;;;3.00;;
1004;SDS011;491;53.480;10.174;2023-12-20T15:01:55;13.23;;;2.33;;
1004;SDS011;491;53.480;10.174;2023-12-20T15:04:21;13.63;;;1.77;;
1004;SDS011;491;53.480;10.174;2023-12-20T15:06:53;13.27;;;1.90;;
1004;SDS011;491;53.480;10.174;2023-12-20T15:09:19;13.20;;;2.57;;
1004;SDS011;491;53.480;10.174;2023-12-20T15:11:45;14.80;;;2.40;;
1004;SDS011;491;53.480;10.174;2023-12-20T15:14:11;10.30;;;2.90;;